Time;durP1;ratioP1;P1;durP2;ratioP2;P2;SDS_P1;SDS_P2;PMS_P1;PMS_P2;Temp;Humidity;BMP_temperature;BMP_pressure;BME280_temperature;BME280_humidity;BME280_pressure;Samples;Min_cycle;Max_cycle;Signal;HPM_P1;HPM_P2
2021/10/08 00:00:43;;;;;;;26.20;19.42;;;;;;;;;;2041502;29;20207;-59
2021/10/08 00:01:45;;;;;;;29.05;19.83;;;;;;;;;;2048656;29;20205;-57
2021/10/08 00:02:45;;;;;;;27.03;20.20;;;;;;;;;;2056488;28;20685;-54
2021/10/08 00:03:47;;;;;;;29.00;20.20;;;;;;;;;;2048629;29;20173;-58
2021/10/08 00:04:47;;;;;;;25.15;18.98;;;;;;;;;;2053312;29;20238;-61
2021/10/08 00:05:47;;;;;;;25.60;19.45;;;;;;;;;;2060873;28;20166;-61
2021/10/08 00:06:48;;;;;;;26.92;18.60;;;;;;;;;;2062204;28;20178;-60
2021/10/08 00:07:48;;;;;;;28.20;19.70;;;;;;;;;;2046123;28;20164;-61
2021/10/08 00:08:48;;;;;;;27.87;18.03;;;;;;;;;;2039032;29;20164;-63
2021/10/08 00:09:49;;;;;;;22.63;17.95;;;;;;;;;;2045177;29;20176;-63
2021/10/08 00:10:50;;;;;;;24.73;18.67;;;;;;;;;;2053782;28;20159;-60
2021/10/08 00:11:50;;;;;;;24.27;19.05;;;;;;;;;;2053156;29;20167;-61
2021/10/08 00:12:51;;;;;;;25.27;17.90;;;;;;;;;;2053269;29;20222;-64
2021/10/08 00:13:52;;;;;;;26.87;19.43;;;;;;;;;;2052048;29;20188;-64
2021/10/08 00:14:52;;;;;;;27.25;19.30;;;;;;;;;;2053522;29;20179;-62
2021/10/08 00:15:52;;;;;;;31.53;19.73;;;;;;;;;;2043051;29;20573;-63
2021/10/08 00:16:53;;;;;;;29.05;19.95;;;;;;;;;;2040043;29;20168;-63
2021/10/08 00:17:53;;;;;;;25.87;19.07;;;;;;;;;;2053906;28;20179;-64
2021/10/08 00:18:53;;;;;;;27.83;18.60;;;;;;;;;;2046331;29;20211;-64
2021/10/08 00:19:53;;;;;;;24.63;18.35;;;;;;;;;;2042385;29;20251;-63
2021/10/08 00:20:54;;;;;;;25.05;17.45;;;;;;;;;;2037745;29;20172;-60
2021/10/08 00:21:54;;;;;;;26.63;17.37;;;;;;;;;;2046288;28;20173;-60
2021/10/08 00:22:54;;;;;;;23.90;17.60;;;;;;;;;;2049351;28;20203;-59
2021/10/08 00:23:54;;;;;;;22.00;17.17;;;;;;;;;;2042730;29;20171;-61
2021/10/08 00:24:55;;;;;;;24.88;18.50;;;;;;;;;;2049998;28;20194;-61
2021/10/08 00:25:55;;;;;;;24.40;18.17;;;;;;;;;;2050106;28;20322;-61
2021/10/08 00:26:55;;;;;;;25.70;18.00;;;;;;;;;;2049564;28;20202;-60
2021/10/08 00:27:55;;;;;;;26.93;18.63;;;;;;;;;;2049161;29;20186;-60
2021/10/08 00:28:56;;;;;;;25.07;18.13;;;;;;;;;;2048700;29;20171;-61
2021/10/08 00:29:56;;;;;;;22.93;17.77;;;;;;;;;;2046502;29;20172;-61
2021/10/08 00:30:56;;;;;;;23.17;17.33;;;;;;;;;;2054884;28;20201;-58
2021/10/08 00:31:57;;;;;;;20.70;17.10;;;;;;;;;;2049821;28;20171;-57
2021/10/08 00:32:57;;;;;;;23.92;17.17;;;;;;;;;;2040519;29;20203;-58
2021/10/08 00:33:57;;;;;;;24.63;18.38;;;;;;;;;;2025460;29;20232;-61
2021/10/08 00:34:57;;;;;;;22.25;18.05;;;;;;;;;;2027370;29;20177;-62
2021/10/08 00:35:58;;;;;;;23.35;18.05;;;;;;;;;;2039354;29;20175;-60
2021/10/08 00:36:58;;;;;;;24.48;17.17;;;;;;;;;;2032622;29;20180;-56
2021/10/08 00:37:58;;;;;;;21.77;16.80;;;;;;;;;;2040736;29;20236;-60
2021/10/08 00:38:59;;;;;;;23.27;17.50;;;;;;;;;;2041460;29;20231;-59
2021/10/08 00:39:59;;;;;;;22.03;17.70;;;;;;;;;;2046943;29;20230;-60
2021/10/08 00:40:59;;;;;;;23.30;18.83;;;;;;;;;;2033663;29;20189;-56
2021/10/08 00:42:00;;;;;;;21.25;17.25;;;;;;;;;;2032676;29;20172;-57
2021/10/08 00:43:00;;;;;;;24.67;18.95;;;;;;;;;;2033889;29;20283;-59
2021/10/08 00:44:01;;;;;;;28.83;20.65;;;;;;;;;;2032972;29;20177;-59
2021/10/08 00:45:01;;;;;;;26.17;20.48;;;;;;;;;;2027876;29;20590;-60
2021/10/08 00:46:01;;;;;;;26.48;18.30;;;;;;;;;;2026385;29;20426;-61
2021/10/08 00:47:10;;;;;;;22.83;17.40;;;;;;;;;;2024854;29;20177;-58
2021/10/08 00:48:11;;;;;;;28.73;18.37;;;;;;;;;;2042298;29;20171;-59
2021/10/08 00:49:11;;;;;;;22.75;17.25;;;;;;;;;;2046464;29;20522;-60
2021/10/08 00:50:11;;;;;;;23.60;18.17;;;;;;;;;;2043342;29;20641;-54
2021/10/08 00:51:12;;;;;;;25.52;19.50;;;;;;;;;;2038587;29;20275;-58
2021/10/08 00:52:12;;;;;;;23.07;18.10;;;;;;;;;;2023801;29;20196;-61
2021/10/08 00:53:12;;;;;;;25.73;18.13;;;;;;;;;;2032574;29;20219;-56
2021/10/08 00:54:12;;;;;;;24.95;18.35;;;;;;;;;;2032476;29;20668;-62
2021/10/08 00:55:13;;;;;;;25.33;18.60;;;;;;;;;;2032768;29;20760;-57
2021/10/08 00:56:15;;;;;;;27.83;19.25;;;;;;;;;;2036329;29;20750;-59
2021/10/08 00:57:16;;;;;;;29.20;18.95;;;;;;;;;;2047813;28;20237;-59
2021/10/08 00:58:18;;;;;;;27.40;17.85;;;;;;;;;;2053827;28;20167;-62
2021/10/08 00:59:19;;;;;;;22.23;16.98;;;;;;;;;;2045953;29;20206;-63
2021/10/08 01:00:19;;;;;;;26.13;17.40;;;;;;;;;;2047284;29;20191;-62
2021/10/08 01:01:19;;;;;;;25.43;17.13;;;;;;;;;;2038977;29;20208;-60
2021/10/08 01:02:20;;;;;;;24.47;16.60;;;;;;;;;;2032357;29;20183;-60
2021/10/08 01:03:21;;;;;;;24.77;18.20;;;;;;;;;;2036221;29;20359;-60
2021/10/08 01:04:23;;;;;;;21.60;16.40;;;;;;;;;;2040397;29;20195;-59
2021/10/08 01:05:23;;;;;;;22.13;16.40;;;;;;;;;;2044786;29;20187;-62
2021/10/08 01:06:24;;;;;;;22.52;17.33;;;;;;;;;;2044061;28;20661;-62
2021/10/08 01:07:24;;;;;;;24.00;16.83;;;;;;;;;;2045871;29;20206;-61
2021/10/08 01:08:24;;;;;;;22.80;16.90;;;;;;;;;;2050466;28;20675;-60
2021/10/08 01:09:25;;;;;;;19.38;15.85;;;;;;;;;;2040242;29;20215;-60
2021/10/08 01:10:25;;;;;;;23.40;16.77;;;;;;;;;;2036952;29;20180;-59
2021/10/08 01:11:25;;;;;;;21.98;16.13;;;;;;;;;;2040063;29;20168;-62
2021/10/08 01:12:27;;;;;;;19.20;15.63;;;;;;;;;;2035127;29;20188;-60
2021/10/08 01:13:28;;;;;;;22.27;17.02;;;;;;;;;;2020565;29;20174;-61
2021/10/08 01:14:28;;;;;;;20.17;16.30;;;;;;;;;;2016557;29;20225;-60
2021/10/08 01:15:30;;;;;;;21.10;17.87;;;;;;;;;;2030461;29;20194;-58
2021/10/08 01:16:31;;;;;;;21.47;16.50;;;;;;;;;;2037940;29;20168;-59
2021/10/08 01:17:32;;;;;;;22.95;16.90;;;;;;;;;;2034901;29;20215;-56
2021/10/08 01:18:33;;;;;;;25.07;18.60;;;;;;;;;;2040113;29;20207;-59
2021/10/08 01:19:33;;;;;;;26.97;18.53;;;;;;;;;;2048293;29;20242;-57
2021/10/08 01:20:36;;;;;;;29.98;19.83;;;;;;;;;;2039761;29;20184;-56
2021/10/08 01:21:42;;;;;;;23.37;18.80;;;;;;;;;;2040302;29;20223;-61
2021/10/08 01:22:44;;;;;;;25.27;17.73;;;;;;;;;;2032409;29;20204;-59
2021/10/08 01:23:50;;;;;;;22.23;17.02;;;;;;;;;;2032777;29;20157;-58
2021/10/08 01:24:51;;;;;;;24.57;17.43;;;;;;;;;;2031470;29;20167;-58
2021/10/08 01:25:54;;;;;;;23.35;18.17;;;;;;;;;;2040287;29;20188;-59
2021/10/08 01:27:05;;;;;;;23.75;16.92;;;;;;;;;;2033090;29;20240;-61
2021/10/08 01:28:05;;;;;;;22.33;17.00;;;;;;;;;;2040481;29;20184;-58
2021/10/08 01:29:11;;;;;;;19.63;15.80;;;;;;;;;;2039586;29;20182;-61
2021/10/08 01:30:13;;;;;;;21.10;17.15;;;;;;;;;;2039556;29;20176;-60
2021/10/08 01:31:19;;;;;;;20.02;15.77;;;;;;;;;;2037941;29;20211;-61
2021/10/08 01:32:37;;;;;;;22.40;16.27;;;;;;;;;;2026273;29;20938;-59
2021/10/08 01:33:38;;;;;;;25.13;17.85;;;;;;;;;;2036587;29;20171;-58
2021/10/08 01:34:38;;;;;;;23.93;18.10;;;;;;;;;;2039804;29;20172;-61
2021/10/08 01:35:38;;;;;;;25.57;17.93;;;;;;;;;;2041772;29;20196;-59
2021/10/08 01:36:39;;;;;;;26.13;18.83;;;;;;;;;;2039159;29;20176;-62
2021/10/08 01:37:42;;;;;;;26.20;18.90;;;;;;;;;;2039737;29;20180;-61
2021/10/08 01:38:42;;;;;;;26.07;18.17;;;;;;;;;;2041762;29;20833;-55
2021/10/08 01:39:43;;;;;;;27.40;18.57;;;;;;;;;;2048560;29;20189;-61
2021/10/08 01:40:45;;;;;;;26.63;18.90;;;;;;;;;;2034401;29;20184;-63
2021/10/08 01:41:49;;;;;;;23.33;17.27;;;;;;;;;;2033424;29;20262;-58
2021/10/08 01:42:55;;;;;;;23.27;17.60;;;;;;;;;;2034507;29;20231;-59
2021/10/08 01:43:56;;;;;;;22.45;16.80;;;;;;;;;;2040873;29;20172;-60
2021/10/08 01:44:59;;;;;;;21.10;16.60;;;;;;;;;;2048136;29;20179;-61
2021/10/08 01:45:59;;;;;;;26.87;19.17;;;;;;;;;;2035675;29;20220;-60
2021/10/08 01:47:09;;;;;;;26.43;19.27;;;;;;;;;;2038579;29;20170;-61
2021/10/08 01:48:10;;;;;;;24.15;19.67;;;;;;;;;;2051049;28;20167;-62
2021/10/08 01:49:10;;;;;;;30.02;19.67;;;;;;;;;;2049472;29;20179;-59
2021/10/08 01:50:11;;;;;;;32.73;20.77;;;;;;;;;;2036334;29;20168;-54
2021/10/08 01:51:14;;;;;;;24.03;18.87;;;;;;;;;;2048985;28;20246;-61
2021/10/08 01:52:17;;;;;;;25.03;19.43;;;;;;;;;;2042148;29;20172;-58
2021/10/08 01:53:21;;;;;;;21.87;17.47;;;;;;;;;;2033457;29;20188;-62
2021/10/08 01:54:22;;;;;;;25.25;18.55;;;;;;;;;;2045997;28;20222;-61
2021/10/08 01:55:23;;;;;;;30.77;19.13;;;;;;;;;;2045006;29;20236;-59
2021/10/08 01:56:31;;;;;;;18.53;16.53;;;;;;;;;;2032566;29;20173;-59
2021/10/08 01:57:35;;;;;;;21.97;17.93;;;;;;;;;;2034257;29;20184;-59
2021/10/08 01:58:35;;;;;;;21.30;18.50;;;;;;;;;;2025169;29;20676;-60
2021/10/08 01:59:35;;;;;;;27.13;18.57;;;;;;;;;;2031498;29;20172;-60
2021/10/08 02:00:39;;;;;;;20.97;16.47;;;;;;;;;;2040216;29;20186;-60
2021/10/08 02:01:54;;;;;;;23.00;17.00;;;;;;;;;;2035663;29;20184;-58
2021/10/08 02:02:54;;;;;;;20.80;16.10;;;;;;;;;;2041120;29;20315;-59
2021/10/08 02:03:57;;;;;;;21.83;17.50;;;;;;;;;;2035876;29;20184;-58
2021/10/08 02:05:00;;;;;;;18.90;16.17;;;;;;;;;;2047213;28;20181;-60
2021/10/08 02:06:01;;;;;;;19.87;16.33;;;;;;;;;;2042291;29;20542;-58
2021/10/08 02:07:04;;;;;;;17.67;15.80;;;;;;;;;;2040318;29;20641;-58
2021/10/08 02:08:05;;;;;;;16.93;15.13;;;;;;;;;;2030604;29;20181;-62
2021/10/08 02:09:07;;;;;;;18.00;15.85;;;;;;;;;;2036141;29;20586;-63
2021/10/08 02:10:10;;;;;;;21.17;16.60;;;;;;;;;;2046307;29;20167;-61
2021/10/08 02:11:11;;;;;;;22.35;16.30;;;;;;;;;;2045625;29;20619;-62
2021/10/08 02:12:12;;;;;;;18.73;16.10;;;;;;;;;;2035326;29;20172;-61
2021/10/08 02:13:12;;;;;;;18.23;15.57;;;;;;;;;;2045411;29;20215;-62
2021/10/08 02:14:16;;;;;;;18.30;15.73;;;;;;;;;;2037023;29;20226;-61
2021/10/08 02:15:21;;;;;;;17.73;15.18;;;;;;;;;;2037518;29;20232;-60
2021/10/08 02:16:23;;;;;;;16.53;14.37;;;;;;;;;;2045341;29;20170;-60
2021/10/08 02:17:33;;;;;;;15.77;14.13;;;;;;;;;;2045516;29;20600;-61
2021/10/08 02:18:33;;;;;;;17.57;15.77;;;;;;;;;;2044775;29;20178;-61
2021/10/08 02:19:35;;;;;;;18.37;15.20;;;;;;;;;;2042319;29;20267;-61
2021/10/08 02:20:36;;;;;;;17.17;15.47;;;;;;;;;;2054853;28;20226;-62
2021/10/08 02:21:37;;;;;;;18.60;16.03;;;;;;;;;;2031422;29;20204;-60
2021/10/08 02:22:41;;;;;;;17.42;15.25;;;;;;;;;;2038909;29;20573;-57
2021/10/08 02:23:41;;;;;;;18.40;16.13;;;;;;;;;;2034825;29;20352;-56
2021/10/08 02:24:43;;;;;;;18.10;15.70;;;;;;;;;;2037857;29;20180;-54
2021/10/08 02:25:44;;;;;;;18.60;16.67;;;;;;;;;;2044436;29;20262;-59
2021/10/08 02:26:44;;;;;;;19.60;15.87;;;;;;;;;;2048053;29;20205;-57
2021/10/08 02:27:53;;;;;;;19.17;16.33;;;;;;;;;;2049244;29;20206;-58
2021/10/08 02:28:54;;;;;;;18.23;15.37;;;;;;;;;;2049850;29;20699;-57
2021/10/08 02:30:00;;;;;;;18.13;14.57;;;;;;;;;;2036652;29;20183;-54
2021/10/08 02:31:00;;;;;;;16.47;14.67;;;;;;;;;;2040451;29;20176;-61
2021/10/08 02:32:05;;;;;;;17.50;15.50;;;;;;;;;;2031555;29;20250;-57
2021/10/08 02:33:06;;;;;;;17.27;14.90;;;;;;;;;;2046739;29;20197;-62
2021/10/08 02:34:07;;;;;;;18.13;16.23;;;;;;;;;;2041626;29;20262;-59
2021/10/08 02:35:07;;;;;;;18.70;16.63;;;;;;;;;;2037274;29;20167;-62
2021/10/08 02:36:08;;;;;;;17.80;15.90;;;;;;;;;;2038349;29;20176;-59
2021/10/08 02:37:08;;;;;;;17.37;15.17;;;;;;;;;;2044427;29;20676;-60
2021/10/08 02:38:10;;;;;;;18.27;15.80;;;;;;;;;;2033140;29;20254;-58
2021/10/08 02:39:11;;;;;;;18.03;15.77;;;;;;;;;;2033051;29;20188;-62
2021/10/08 02:40:12;;;;;;;18.40;15.00;;;;;;;;;;2043243;29;20163;-56
2021/10/08 02:41:12;;;;;;;18.13;16.03;;;;;;;;;;2049268;28;20171;-60
2021/10/08 02:42:12;;;;;;;18.97;15.70;;;;;;;;;;2044053;29;20262;-60
2021/10/08 02:43:14;;;;;;;18.63;16.60;;;;;;;;;;2037078;29;20200;-58
2021/10/08 02:44:14;;;;;;;17.83;15.83;;;;;;;;;;2036691;29;20199;-62
2021/10/08 02:45:16;;;;;;;18.00;15.40;;;;;;;;;;2046598;28;20202;-58
2021/10/08 02:46:16;;;;;;;17.58;15.00;;;;;;;;;;2045085;28;20178;-59
2021/10/08 02:47:17;;;;;;;18.13;14.87;;;;;;;;;;2040109;29;20199;-59
2021/10/08 02:48:17;;;;;;;15.87;14.27;;;;;;;;;;2044864;29;20168;-59
2021/10/08 02:49:21;;;;;;;17.53;14.40;;;;;;;;;;2046085;29;20680;-62
2021/10/08 02:50:23;;;;;;;14.80;13.20;;;;;;;;;;2046429;28;20175;-58
2021/10/08 02:51:23;;;;;;;15.00;13.40;;;;;;;;;;2044290;29;20170;-59
2021/10/08 02:52:23;;;;;;;15.47;13.73;;;;;;;;;;2046371;29;20274;-60
2021/10/08 02:53:24;;;;;;;15.77;13.77;;;;;;;;;;2041035;29;20167;-62
2021/10/08 02:54:24;;;;;;;14.33;12.83;;;;;;;;;;2032767;29;20632;-61
2021/10/08 02:55:24;;;;;;;15.60;13.97;;;;;;;;;;2035177;29;20263;-60
2021/10/08 02:56:24;;;;;;;15.77;14.07;;;;;;;;;;2042974;29;20266;-57
2021/10/08 02:57:25;;;;;;;17.17;14.13;;;;;;;;;;2045342;29;20171;-60
2021/10/08 02:58:25;;;;;;;15.63;13.97;;;;;;;;;;2036185;29;20199;-59
2021/10/08 02:59:26;;;;;;;18.07;15.03;;;;;;;;;;2043017;29;20600;-60
2021/10/08 03:00:27;;;;;;;17.33;14.73;;;;;;;;;;2034491;29;20324;-60
2021/10/08 03:01:27;;;;;;;17.67;15.87;;;;;;;;;;2043335;29;20203;-59
2021/10/08 03:02:28;;;;;;;21.30;17.00;;;;;;;;;;2043292;29;20254;-60
2021/10/08 03:03:28;;;;;;;31.23;20.07;;;;;;;;;;2066402;23;20219;-55
2021/10/08 03:04:28;;;;;;;29.23;18.60;;;;;;;;;;2052560;28;20179;-54
2021/10/08 03:05:29;;;;;;;22.73;16.53;;;;;;;;;;2057451;28;20191;-51
2021/10/08 03:06:29;;;;;;;20.53;17.57;;;;;;;;;;2053931;28;20167;-52
2021/10/08 03:07:29;;;;;;;24.37;17.43;;;;;;;;;;2048865;29;20775;-51
2021/10/08 03:08:30;;;;;;;23.23;17.10;;;;;;;;;;2044494;29;20183;-51
2021/10/08 03:09:30;;;;;;;22.13;17.43;;;;;;;;;;2049885;29;20184;-50
2021/10/08 03:10:31;;;;;;;24.50;18.33;;;;;;;;;;2055480;28;20187;-54
2021/10/08 03:11:31;;;;;;;22.53;17.80;;;;;;;;;;2055153;28;20157;-57
2021/10/08 03:12:31;;;;;;;19.20;16.70;;;;;;;;;;2052223;28;20258;-52
2021/10/08 03:13:31;;;;;;;21.90;16.80;;;;;;;;;;2053910;29;20691;-54
2021/10/08 03:14:32;;;;;;;18.50;15.93;;;;;;;;;;2039993;29;20210;-51
2021/10/08 03:15:32;;;;;;;18.73;15.07;;;;;;;;;;2041235;29;20239;-51
2021/10/08 03:16:33;;;;;;;19.00;16.07;;;;;;;;;;2052933;28;20175;-55
2021/10/08 03:17:33;;;;;;;21.27;15.63;;;;;;;;;;2057098;28;20771;-55
2021/10/08 03:18:35;;;;;;;19.30;16.13;;;;;;;;;;2057928;28;20198;-56
2021/10/08 03:19:38;;;;;;;18.73;15.67;;;;;;;;;;2047569;29;20656;-54
2021/10/08 03:20:40;;;;;;;16.33;14.60;;;;;;;;;;2045012;29;20266;-55
2021/10/08 03:21:40;;;;;;;19.90;16.20;;;;;;;;;;2052128;29;20207;-55
2021/10/08 03:22:40;;;;;;;18.00;15.73;;;;;;;;;;2044573;29;20529;-51
2021/10/08 03:23:41;;;;;;;19.00;17.00;;;;;;;;;;2050552;29;20195;-52
2021/10/08 03:24:42;;;;;;;20.80;16.37;;;;;;;;;;2061195;28;20198;-57
2021/10/08 03:25:43;;;;;;;19.37;16.17;;;;;;;;;;2052972;29;20182;-54
2021/10/08 03:26:45;;;;;;;25.00;18.57;;;;;;;;;;2046842;29;20187;-53
2021/10/08 03:27:45;;;;;;;25.10;18.20;;;;;;;;;;2045194;29;20211;-55
2021/10/08 03:28:45;;;;;;;21.47;17.80;;;;;;;;;;2045087;29;20180;-55
2021/10/08 03:29:46;;;;;;;23.10;17.52;;;;;;;;;;2052581;28;20616;-56
2021/10/08 03:30:47;;;;;;;31.60;19.42;;;;;;;;;;2052360;28;20206;-53
2021/10/08 03:31:47;;;;;;;25.27;17.30;;;;;;;;;;2052953;29;20270;-52
2021/10/08 03:32:48;;;;;;;31.57;19.63;;;;;;;;;;2035390;29;20185;-53
2021/10/08 03:33:48;;;;;;;34.60;20.90;;;;;;;;;;2040103;29;20345;-56
2021/10/08 03:34:48;;;;;;;33.70;20.77;;;;;;;;;;2041909;29;20698;-54
2021/10/08 03:35:49;;;;;;;27.88;17.80;;;;;;;;;;2041003;29;20730;-55
2021/10/08 03:36:51;;;;;;;37.50;19.37;;;;;;;;;;2040971;29;20211;-55
2021/10/08 03:38:09;;;;;;;34.50;20.03;;;;;;;;;;2048077;29;20191;-51
2021/10/08 03:39:11;;;;;;;25.67;18.90;;;;;;;;;;2041330;29;20617;-52
2021/10/08 03:40:20;;;;;;;32.70;20.53;;;;;;;;;;2044867;29;20195;-51
2021/10/08 03:41:20;;;;;;;22.83;17.33;;;;;;;;;;2048582;29;20200;-54
2021/10/08 03:42:22;;;;;;;28.03;18.77;;;;;;;;;;2046752;29;20183;-55
2021/10/08 03:43:22;;;;;;;27.80;17.55;;;;;;;;;;2050944;28;20175;-55
2021/10/08 03:44:23;;;;;;;23.13;17.40;;;;;;;;;;2052142;28;20541;-54
2021/10/08 03:45:31;;;;;;;25.33;19.67;;;;;;;;;;2047430;29;20189;-52
2021/10/08 03:46:38;;;;;;;25.13;19.37;;;;;;;;;;2050013;28;20670;-55
2021/10/08 03:47:56;;;;;;;30.33;19.70;;;;;;;;;;2042375;29;20172;-53
2021/10/08 03:50:09;;;;;;;32.87;21.23;;;;;;;;;;2048303;29;20791;-53
2021/10/08 03:51:09;;;;;;;35.95;22.73;;;;;;;;;;2046949;29;20198;-54
2021/10/08 03:52:10;;;;;;;44.92;23.25;;;;;;;;;;2048082;29;20206;-55
2021/10/08 03:53:11;;;;;;;40.77;22.47;;;;;;;;;;2052993;28;20560;-52
2021/10/08 03:54:12;;;;;;;37.07;22.43;;;;;;;;;;2052166;28;20178;-52
2021/10/08 03:55:12;;;;;;;45.17;23.27;;;;;;;;;;2046387;29;20247;-53
2021/10/08 03:56:12;;;;;;;42.30;22.33;;;;;;;;;;2043405;28;20163;-52
2021/10/08 03:57:13;;;;;;;49.57;24.43;;;;;;;;;;2048936;28;20187;-51
2021/10/08 03:58:13;;;;;;;48.30;22.98;;;;;;;;;;2050140;29;20233;-54
2021/10/08 03:59:15;;;;;;;40.67;21.97;;;;;;;;;;2049882;29;20313;-52
2021/10/08 04:00:16;;;;;;;55.60;23.30;;;;;;;;;;2043566;29;20178;-57
2021/10/08 04:01:19;;;;;;;51.47;22.53;;;;;;;;;;2045700;29;20211;-54
2021/10/08 04:02:20;;;;;;;44.33;21.33;;;;;;;;;;2042122;29;20176;-56
2021/10/08 04:03:21;;;;;;;37.97;20.47;;;;;;;;;;2039492;29;20254;-55
2021/10/08 04:04:21;;;;;;;54.93;23.07;;;;;;;;;;2048028;29;20171;-54
2021/10/08 04:05:22;;;;;;;46.83;21.67;;;;;;;;;;2035518;29;20176;-51
2021/10/08 04:06:22;;;;;;;36.43;20.17;;;;;;;;;;2036228;29;20168;-54
2021/10/08 04:07:24;;;;;;;39.70;20.67;;;;;;;;;;2045328;28;20258;-55
2021/10/08 04:08:24;;;;;;;29.07;21.57;;;;;;;;;;2047988;29;20554;-52
2021/10/08 04:09:27;;;;;;;42.30;23.77;;;;;;;;;;2040644;29;20612;-54
2021/10/08 04:10:28;;;;;;;45.37;23.43;;;;;;;;;;2039470;29;20202;-52
2021/10/08 04:11:28;;;;;;;30.10;19.73;;;;;;;;;;2040714;29;20175;-55
2021/10/08 04:12:28;;;;;;;32.70;20.93;;;;;;;;;;2047157;29;20194;-52
2021/10/08 04:13:29;;;;;;;46.90;22.57;;;;;;;;;;2047655;29;20729;-55
2021/10/08 04:14:31;;;;;;;35.80;20.93;;;;;;;;;;2048032;29;20186;-52
2021/10/08 04:15:32;;;;;;;34.22;19.80;;;;;;;;;;2047570;29;20195;-51
2021/10/08 04:16:36;;;;;;;35.63;19.80;;;;;;;;;;2048501;29;20179;-54
2021/10/08 04:17:37;;;;;;;31.07;19.53;;;;;;;;;;2043794;28;20187;-52
2021/10/08 04:18:37;;;;;;;33.63;19.15;;;;;;;;;;2048217;29;20946;-52
2021/10/08 04:19:38;;;;;;;30.83;18.67;;;;;;;;;;2043619;29;20254;-53
2021/10/08 04:20:39;;;;;;;23.87;17.83;;;;;;;;;;2041335;29;20184;-51
2021/10/08 04:21:39;;;;;;;27.03;17.87;;;;;;;;;;2047006;29;20690;-52
2021/10/08 04:22:40;;;;;;;22.58;17.40;;;;;;;;;;2048858;29;20201;-52
2021/10/08 04:23:41;;;;;;;27.40;17.02;;;;;;;;;;2045759;28;20190;-51
2021/10/08 04:24:42;;;;;;;40.10;19.17;;;;;;;;;;2040326;29;20182;-52
2021/10/08 04:25:44;;;;;;;29.37;18.03;;;;;;;;;;2036516;28;20261;-53
2021/10/08 04:26:45;;;;;;;31.60;19.57;;;;;;;;;;2048429;29;20686;-50
2021/10/08 04:27:45;;;;;;;35.47;19.77;;;;;;;;;;2028198;29;20185;-56
2021/10/08 04:28:46;;;;;;;26.40;17.47;;;;;;;;;;2039813;29;20248;-50
2021/10/08 04:29:49;;;;;;;28.50;18.50;;;;;;;;;;2038130;29;20176;-52
2021/10/08 04:30:49;;;;;;;27.23;18.30;;;;;;;;;;2040045;29;20191;-50
2021/10/08 04:31:50;;;;;;;26.70;18.43;;;;;;;;;;2040344;29;20192;-53
2021/10/08 04:32:50;;;;;;;22.13;17.17;;;;;;;;;;2039733;29;20183;-54
2021/10/08 04:33:51;;;;;;;31.27;19.67;;;;;;;;;;2047166;29;20198;-54
2021/10/08 04:34:52;;;;;;;34.23;19.43;;;;;;;;;;2039728;29;20175;-54
2021/10/08 04:35:56;;;;;;;27.73;18.23;;;;;;;;;;2047557;28;20242;-53
2021/10/08 04:36:56;;;;;;;31.20;19.27;;;;;;;;;;2041276;29;20183;-52
2021/10/08 04:37:57;;;;;;;29.73;20.33;;;;;;;;;;2048527;29;20178;-54
2021/10/08 04:38:58;;;;;;;24.87;18.33;;;;;;;;;;2047232;29;20693;-51
2021/10/08 04:39:58;;;;;;;22.23;17.83;;;;;;;;;;2045259;29;20171;-55
2021/10/08 04:40:59;;;;;;;19.33;16.93;;;;;;;;;;2039606;29;20207;-52
2021/10/08 04:41:59;;;;;;;21.17;17.30;;;;;;;;;;2046782;28;20179;-52
2021/10/08 04:43:00;;;;;;;23.57;17.33;;;;;;;;;;2038540;29;20574;-54
2021/10/08 04:44:00;;;;;;;25.17;17.43;;;;;;;;;;2033989;29;20200;-53
2021/10/08 04:45:03;;;;;;;21.20;16.40;;;;;;;;;;2039809;29;20172;-56
2021/10/08 04:46:03;;;;;;;30.60;17.85;;;;;;;;;;2039840;29;20188;-51
2021/10/08 04:47:05;;;;;;;22.80;17.37;;;;;;;;;;2039783;29;20195;-52
2021/10/08 04:48:06;;;;;;;26.43;17.00;;;;;;;;;;2039571;29;20198;-52
2021/10/08 04:49:06;;;;;;;28.70;18.20;;;;;;;;;;2037843;29;20873;-51
2021/10/08 04:50:06;;;;;;;29.57;19.03;;;;;;;;;;2047329;29;20183;-52
2021/10/08 04:51:13;;;;;;;25.13;17.50;;;;;;;;;;2047041;29;20592;-55
2021/10/08 04:52:13;;;;;;;23.27;17.53;;;;;;;;;;2044003;29;20184;-53
2021/10/08 04:53:18;;;;;;;23.07;18.33;;;;;;;;;;2043065;29;20175;-56
2021/10/08 04:54:19;;;;;;;27.70;19.88;;;;;;;;;;2047287;29;20182;-50
2021/10/08 04:55:20;;;;;;;28.97;19.80;;;;;;;;;;2037453;29;20183;-55
2021/10/08 04:56:21;;;;;;;30.77;19.87;;;;;;;;;;2038771;29;20180;-51
2021/10/08 04:57:24;;;;;;;29.55;19.88;;;;;;;;;;2039716;29;20226;-50
2021/10/08 04:58:25;;;;;;;40.23;22.97;;;;;;;;;;2039774;29;20274;-53
2021/10/08 04:59:29;;;;;;;35.70;21.70;;;;;;;;;;2032288;29;20816;-52
2021/10/08 05:00:30;;;;;;;36.05;21.10;;;;;;;;;;2038426;29;20176;-56
2021/10/08 05:01:30;;;;;;;33.93;20.87;;;;;;;;;;2044181;29;20199;-52
2021/10/08 05:02:32;;;;;;;32.77;21.47;;;;;;;;;;2040002;29;20180;-54
2021/10/08 05:03:32;;;;;;;39.83;21.85;;;;;;;;;;2043244;29;20625;-54
2021/10/08 05:04:33;;;;;;;35.53;19.45;;;;;;;;;;2047521;29;20304;-54
2021/10/08 05:05:34;;;;;;;32.67;20.50;;;;;;;;;;2039734;29;20184;-54
2021/10/08 05:06:34;;;;;;;25.75;19.27;;;;;;;;;;2036816;29;20329;-55
2021/10/08 05:07:35;;;;;;;25.20;18.80;;;;;;;;;;2040135;29;20228;-52
2021/10/08 05:08:36;;;;;;;31.13;20.70;;;;;;;;;;2053580;28;20564;-54
2021/10/08 05:09:38;;;;;;;35.33;21.17;;;;;;;;;;2056856;28;20813;-54
2021/10/08 05:10:38;;;;;;;25.90;18.93;;;;;;;;;;2049041;29;20187;-54
2021/10/08 05:11:40;;;;;;;27.43;19.33;;;;;;;;;;2051603;29;20186;-55
2021/10/08 05:12:40;;;;;;;27.07;19.63;;;;;;;;;;2043296;29;20243;-55
2021/10/08 05:13:41;;;;;;;25.83;17.27;;;;;;;;;;2043662;29;20200;-53
2021/10/08 05:14:42;;;;;;;27.00;18.35;;;;;;;;;;2043082;29;20202;-54
2021/10/08 05:15:43;;;;;;;22.08;16.67;;;;;;;;;;2046591;29;20190;-56
2021/10/08 05:16:43;;;;;;;21.50;16.73;;;;;;;;;;2042002;29;20196;-52
2021/10/08 05:17:44;;;;;;;27.77;19.47;;;;;;;;;;2041817;29;20171;-53
2021/10/08 05:18:44;;;;;;;41.50;20.23;;;;;;;;;;2050180;29;20396;-53
2021/10/08 05:19:48;;;;;;;23.50;17.23;;;;;;;;;;2049802;28;20192;-54
2021/10/08 05:20:57;;;;;;;24.52;17.35;;;;;;;;;;2048439;29;20304;-51
2021/10/08 05:21:59;;;;;;;24.63;17.70;;;;;;;;;;2044312;28;20207;-51
2021/10/08 05:22:59;;;;;;;31.58;18.75;;;;;;;;;;2048270;29;20202;-52
2021/10/08 05:24:00;;;;;;;24.17;17.47;;;;;;;;;;2045174;29;20226;-57
2021/10/08 05:25:00;;;;;;;22.60;18.23;;;;;;;;;;2047065;29;20171;-51
2021/10/08 05:26:01;;;;;;;29.00;17.40;;;;;;;;;;2035779;29;21063;-51
2021/10/08 05:27:02;;;;;;;22.33;16.90;;;;;;;;;;2049190;28;20171;-52
2021/10/08 05:28:02;;;;;;;22.07;17.13;;;;;;;;;;2040696;29;20234;-52
2021/10/08 05:29:02;;;;;;;28.30;17.87;;;;;;;;;;2040195;29;20188;-52
2021/10/08 05:30:05;;;;;;;24.40;17.63;;;;;;;;;;2044067;29;20190;-50
2021/10/08 05:31:06;;;;;;;19.80;16.60;;;;;;;;;;2035825;29;20183;-52
2021/10/08 05:32:06;;;;;;;25.77;18.07;;;;;;;;;;2046980;29;20555;-51
2021/10/08 05:33:07;;;;;;;22.57;16.33;;;;;;;;;;2041905;28;20216;-55
2021/10/08 05:34:08;;;;;;;25.83;17.00;;;;;;;;;;2046382;29;20287;-52
2021/10/08 05:35:08;;;;;;;23.37;17.17;;;;;;;;;;2043443;29;20561;-52
2021/10/08 05:36:09;;;;;;;27.20;16.80;;;;;;;;;;2047922;29;20269;-49
2021/10/08 05:37:09;;;;;;;23.30;16.03;;;;;;;;;;2039088;29;20180;-49
2021/10/08 05:38:09;;;;;;;29.87;17.20;;;;;;;;;;2039082;29;20659;-47
2021/10/08 05:39:09;;;;;;;26.60;17.07;;;;;;;;;;2048160;29;20167;-52
2021/10/08 05:40:11;;;;;;;31.20;18.03;;;;;;;;;;2045376;29;20187;-53
2021/10/08 05:41:14;;;;;;;21.43;16.37;;;;;;;;;;2038504;29;20172;-49
2021/10/08 05:42:17;;;;;;;30.63;16.90;;;;;;;;;;2045274;29;20168;-49
2021/10/08 05:43:18;;;;;;;39.60;19.27;;;;;;;;;;2041196;29;20176;-50
2021/10/08 05:44:22;;;;;;;44.37;19.73;;;;;;;;;;2041047;29;20176;-52
2021/10/08 05:45:22;;;;;;;31.57;18.80;;;;;;;;;;2043999;29;20210;-53
2021/10/08 05:46:24;;;;;;;33.23;18.37;;;;;;;;;;2046521;29;20171;-53
2021/10/08 05:47:24;;;;;;;25.93;16.80;;;;;;;;;;2046562;29;20179;-53
2021/10/08 05:48:25;;;;;;;22.77;16.63;;;;;;;;;;2049294;29;20193;-49
2021/10/08 05:49:26;;;;;;;30.57;18.30;;;;;;;;;;2049028;29;20647;-50
2021/10/08 05:50:26;;;;;;;34.83;18.90;;;;;;;;;;2049058;29;20179;-47
2021/10/08 05:51:27;;;;;;;30.43;18.13;;;;;;;;;;2040547;29;20270;-50
2021/10/08 05:52:27;;;;;;;26.80;17.13;;;;;;;;;;2043604;29;20184;-50
2021/10/08 05:53:27;;;;;;;30.27;17.23;;;;;;;;;;2041856;29;20275;-52
2021/10/08 05:54:28;;;;;;;25.90;17.20;;;;;;;;;;2044809;29;20185;-54
2021/10/08 05:55:28;;;;;;;36.17;18.40;;;;;;;;;;2047850;29;20203;-49
2021/10/08 05:56:29;;;;;;;27.27;18.00;;;;;;;;;;2041012;29;20556;-55
2021/10/08 05:57:29;;;;;;;28.07;17.70;;;;;;;;;;2040034;29;20267;-52
2021/10/08 05:58:30;;;;;;;28.83;18.37;;;;;;;;;;2043954;29;20180;-50